Terminal Aerodrome Forecast
Issued by NWS Paducah, KY

Home | Current Version | Previous Version | Text Only | Print | Product List | Glossary On
Versions: 1 2 3 4 5 6 7 8 9 10 11 12 13 14
314
FTUS43 KPAH 202330
TAFEVV
TAF
KEVV 202330Z 2100/2124 25006KT P6SM OVC060
     FM210700 29005KT P6SM BKN100
     FM211300 30008KT P6SM SCT200=

USA.gov is the U.S. government's official web portal to all federal, state and local government web resources and services.